sensor_id;sensor_type;location;lat;lon;timestamp;P1;durP1;ratioP1;P2;durP2;ratioP2
38715;SDS011;24833;49.324;8.694;2022-11-15T00:01:42;2.95;;;2.28;;
38715;SDS011;24833;49.324;8.694;2022-11-15T00:04:28;3.58;;;2.50;;
38715;SDS011;24833;49.324;8.694;2022-11-15T00:07:13;3.35;;;2.95;;
38715;SDS011;24833;49.324;8.694;2022-11-15T00:10:19;3.42;;;2.78;;
38715;SDS011;24833;49.324;8.694;2022-11-15T00:13:05;3.72;;;2.75;;
38715;SDS011;24833;49.324;8.694;2022-11-15T00:15:52;6.47;;;2.45;;
38715;SDS011;24833;49.324;8.694;2022-11-15T00:18:40;5.00;;;3.30;;
38715;SDS011;24833;49.324;8.694;2022-11-15T00:21:34;3.33;;;2.40;;
38715;SDS011;24833;49.324;8.694;2022-11-15T00:24:20;3.47;;;2.50;;
38715;SDS011;24833;49.324;8.694;2022-11-15T00:27:05;3.13;;;2.47;;
38715;SDS011;24833;49.324;8.694;2022-11-15T00:29:52;2.88;;;2.58;;
38715;SDS011;24833;49.324;8.694;2022-11-15T00:32:38;3.47;;;2.67;;
38715;SDS011;24833;49.324;8.694;2022-11-15T00:35:23;10.88;;;3.00;;
38715;SDS011;24833;49.324;8.694;2022-11-15T00:38:09;3.78;;;2.55;;
38715;SDS011;24833;49.324;8.694;2022-11-15T00:40:55;3.78;;;2.67;;
38715;SDS011;24833;49.324;8.694;2022-11-15T00:43:40;3.88;;;2.85;;
38715;SDS011;24833;49.324;8.694;2022-11-15T00:46:28;4.80;;;2.58;;
38715;SDS011;24833;49.324;8.694;2022-11-15T00:49:13;4.30;;;3.05;;
38715;SDS011;24833;49.324;8.694;2022-11-15T00:51:59;4.75;;;2.78;;
38715;SDS011;24833;49.324;8.694;2022-11-15T00:54:47;4.20;;;2.75;;
38715;SDS011;24833;49.324;8.694;2022-11-15T00:57:33;2.90;;;2.30;;
38715;SDS011;24833;49.324;8.694;2022-11-15T01:00:19;4.70;;;3.03;;
38715;SDS011;24833;49.324;8.694;2022-11-15T01:03:04;2.85;;;2.42;;
38715;SDS011;24833;49.324;8.694;2022-11-15T01:05:50;2.90;;;2.60;;
38715;SDS011;24833;49.324;8.694;2022-11-15T01:08:35;4.82;;;2.70;;
38715;SDS011;24833;49.324;8.694;2022-11-15T01:11:21;6.07;;;3.28;;
38715;SDS011;24833;49.324;8.694;2022-11-15T01:14:07;4.80;;;2.47;;
38715;SDS011;24833;49.324;8.694;2022-11-15T01:16:52;4.10;;;2.58;;
38715;SDS011;24833;49.324;8.694;2022-11-15T01:19:38;2.72;;;2.42;;
38715;SDS011;24833;49.324;8.694;2022-11-15T01:22:23;4.68;;;2.42;;
38715;SDS011;24833;49.324;8.694;2022-11-15T01:25:09;2.85;;;2.38;;
38715;SDS011;24833;49.324;8.694;2022-11-15T01:27:54;3.95;;;2.35;;
38715;SDS011;24833;49.324;8.694;2022-11-15T01:30:40;4.65;;;2.38;;
38715;SDS011;24833;49.324;8.694;2022-11-15T01:33:26;2.33;;;2.13;;
38715;SDS011;24833;49.324;8.694;2022-11-15T01:36:15;2.53;;;2.15;;
38715;SDS011;24833;49.324;8.694;2022-11-15T01:39:08;3.17;;;2.60;;
38715;SDS011;24833;49.324;8.694;2022-11-15T01:41:54;4.07;;;2.85;;
38715;SDS011;24833;49.324;8.694;2022-11-15T01:44:46;4.18;;;2.53;;
38715;SDS011;24833;49.324;8.694;2022-11-15T01:47:35;4.30;;;2.17;;
38715;SDS011;24833;49.324;8.694;2022-11-15T01:50:29;3.58;;;2.28;;
38715;SDS011;24833;49.324;8.694;2022-11-15T01:53:17;2.78;;;2.30;;
38715;SDS011;24833;49.324;8.694;2022-11-15T01:56:07;4.53;;;2.13;;
38715;SDS011;24833;49.324;8.694;2022-11-15T01:58:57;5.25;;;2.13;;
38715;SDS011;24833;49.324;8.694;2022-11-15T02:01:46;3.88;;;1.90;;
38715;SDS011;24833;49.324;8.694;2022-11-15T02:04:41;3.67;;;2.30;;
38715;SDS011;24833;49.324;8.694;2022-11-15T02:07:29;2.28;;;2.08;;
38715;SDS011;24833;49.324;8.694;2022-11-15T02:10:20;4.90;;;2.30;;
38715;SDS011;24833;49.324;8.694;2022-11-15T02:13:08;5.45;;;2.10;;
38715;SDS011;24833;49.324;8.694;2022-11-15T02:22:24;4.90;;;1.73;;
38715;SDS011;24833;49.324;8.694;2022-11-15T02:29:05;2.33;;;1.85;;
38715;SDS011;24833;49.324;8.694;2022-11-15T02:32:05;2.25;;;1.90;;
38715;SDS011;24833;49.324;8.694;2022-11-15T02:35:22;5.03;;;1.95;;
38715;SDS011;24833;49.324;8.694;2022-11-15T02:41:54;2.75;;;1.80;;
38715;SDS011;24833;49.324;8.694;2022-11-15T02:44:47;2.10;;;1.90;;
38715;SDS011;24833;49.324;8.694;2022-11-15T02:47:37;2.50;;;2.15;;
38715;SDS011;24833;49.324;8.694;2022-11-15T02:50:29;2.40;;;1.70;;
38715;SDS011;24833;49.324;8.694;2022-11-15T02:53:16;3.22;;;2.00;;
38715;SDS011;24833;49.324;8.694;2022-11-15T02:56:05;2.80;;;2.15;;
38715;SDS011;24833;49.324;8.694;2022-11-15T03:12:13;5.07;;;2.20;;
38715;SDS011;24833;49.324;8.694;2022-11-15T03:15:18;4.65;;;1.77;;
38715;SDS011;24833;49.324;8.694;2022-11-15T03:18:21;3.90;;;1.90;;
38715;SDS011;24833;49.324;8.694;2022-11-15T03:21:18;2.40;;;1.80;;
38715;SDS011;24833;49.324;8.694;2022-11-15T03:24:07;3.75;;;1.85;;
38715;SDS011;24833;49.324;8.694;2022-11-15T03:26:53;2.85;;;2.15;;
38715;SDS011;24833;49.324;8.694;2022-11-15T03:29:44;3.38;;;2.17;;
38715;SDS011;24833;49.324;8.694;2022-11-15T03:32:44;3.47;;;1.63;;
38715;SDS011;24833;49.324;8.694;2022-11-15T03:35:40;2.20;;;1.67;;
38715;SDS011;24833;49.324;8.694;2022-11-15T03:38:29;2.72;;;2.22;;
38715;SDS011;24833;49.324;8.694;2022-11-15T03:41:35;5.32;;;2.08;;
38715;SDS011;24833;49.324;8.694;2022-11-15T03:47:49;4.05;;;1.83;;
38715;SDS011;24833;49.324;8.694;2022-11-15T03:50:43;4.88;;;2.42;;
38715;SDS011;24833;49.324;8.694;2022-11-15T03:53:30;2.90;;;1.95;;
38715;SDS011;24833;49.324;8.694;2022-11-15T03:56:17;4.22;;;2.50;;
38715;SDS011;24833;49.324;8.694;2022-11-15T03:59:02;2.17;;;1.73;;
38715;SDS011;24833;49.324;8.694;2022-11-15T04:01:48;2.72;;;2.00;;
38715;SDS011;24833;49.324;8.694;2022-11-15T04:04:33;3.50;;;1.90;;
38715;SDS011;24833;49.324;8.694;2022-11-15T04:07:19;3.38;;;1.95;;
38715;SDS011;24833;49.324;8.694;2022-11-15T04:10:05;2.78;;;1.55;;
38715;SDS011;24833;49.324;8.694;2022-11-15T04:12:51;2.75;;;2.05;;
38715;SDS011;24833;49.324;8.694;2022-11-15T04:15:37;3.40;;;1.95;;
38715;SDS011;24833;49.324;8.694;2022-11-15T04:18:23;4.25;;;1.70;;
38715;SDS011;24833;49.324;8.694;2022-11-15T04:21:08;2.63;;;1.90;;
38715;SDS011;24833;49.324;8.694;2022-11-15T04:24:13;2.33;;;1.75;;
38715;SDS011;24833;49.324;8.694;2022-11-15T04:26:59;3.60;;;2.00;;
38715;SDS011;24833;49.324;8.694;2022-11-15T04:29:44;4.20;;;2.03;;
38715;SDS011;24833;49.324;8.694;2022-11-15T04:32:30;1.90;;;1.67;;
38715;SDS011;24833;49.324;8.694;2022-11-15T04:35:15;3.83;;;1.83;;
38715;SDS011;24833;49.324;8.694;2022-11-15T04:38:01;3.13;;;1.50;;
38715;SDS011;24833;49.324;8.694;2022-11-15T04:40:49;3.08;;;1.90;;
38715;SDS011;24833;49.324;8.694;2022-11-15T04:43:35;2.00;;;1.70;;
38715;SDS011;24833;49.324;8.694;2022-11-15T04:46:20;4.13;;;1.90;;
38715;SDS011;24833;49.324;8.694;2022-11-15T04:49:08;1.67;;;1.42;;
38715;SDS011;24833;49.324;8.694;2022-11-15T04:51:53;2.63;;;1.88;;
38715;SDS011;24833;49.324;8.694;2022-11-15T04:54:39;2.45;;;1.83;;
38715;SDS011;24833;49.324;8.694;2022-11-15T04:57:26;2.35;;;1.63;;
38715;SDS011;24833;49.324;8.694;2022-11-15T05:00:12;3.28;;;1.80;;
38715;SDS011;24833;49.324;8.694;2022-11-15T05:03:00;2.50;;;1.98;;
38715;SDS011;24833;49.324;8.694;2022-11-15T05:06:04;3.15;;;1.67;;
38715;SDS011;24833;49.324;8.694;2022-11-15T05:08:51;3.50;;;1.95;;
38715;SDS011;24833;49.324;8.694;2022-11-15T05:11:37;2.60;;;2.03;;
38715;SDS011;24833;49.324;8.694;2022-11-15T05:14:22;2.42;;;1.73;;
38715;SDS011;24833;49.324;8.694;2022-11-15T05:17:08;2.42;;;1.77;;
38715;SDS011;24833;49.324;8.694;2022-11-15T05:19:53;2.72;;;2.03;;
38715;SDS011;24833;49.324;8.694;2022-11-15T05:22:39;1.67;;;1.58;;
38715;SDS011;24833;49.324;8.694;2022-11-15T05:25:25;2.65;;;1.80;;
38715;SDS011;24833;49.324;8.694;2022-11-15T05:28:11;2.28;;;1.85;;
38715;SDS011;24833;49.324;8.694;2022-11-15T05:31:01;2.25;;;1.35;;
38715;SDS011;24833;49.324;8.694;2022-11-15T05:33:51;2.20;;;1.77;;
38715;SDS011;24833;49.324;8.694;2022-11-15T05:36:43;2.90;;;1.55;;
38715;SDS011;24833;49.324;8.694;2022-11-15T05:39:30;3.08;;;1.73;;
38715;SDS011;24833;49.324;8.694;2022-11-15T05:42:16;1.63;;;1.52;;
38715;SDS011;24833;49.324;8.694;2022-11-15T05:45:02;1.95;;;1.40;;
38715;SDS011;24833;49.324;8.694;2022-11-15T05:47:51;3.00;;;2.00;;
38715;SDS011;24833;49.324;8.694;2022-11-15T05:50:41;5.60;;;2.20;;
38715;SDS011;24833;49.324;8.694;2022-11-15T05:53:29;2.28;;;1.80;;
38715;SDS011;24833;49.324;8.694;2022-11-15T05:56:16;1.92;;;1.70;;
38715;SDS011;24833;49.324;8.694;2022-11-15T05:59:01;3.53;;;1.70;;
38715;SDS011;24833;49.324;8.694;2022-11-15T06:01:48;2.00;;;1.40;;
38715;SDS011;24833;49.324;8.694;2022-11-15T06:04:34;2.35;;;1.60;;
38715;SDS011;24833;49.324;8.694;2022-11-15T06:07:19;3.38;;;1.90;;
38715;SDS011;24833;49.324;8.694;2022-11-15T06:10:05;2.42;;;1.50;;
38715;SDS011;24833;49.324;8.694;2022-11-15T06:12:58;1.70;;;1.50;;
38715;SDS011;24833;49.324;8.694;2022-11-15T06:15:44;3.17;;;1.55;;
38715;SDS011;24833;49.324;8.694;2022-11-15T06:18:33;1.58;;;1.48;;
38715;SDS011;24833;49.324;8.694;2022-11-15T06:21:20;2.38;;;1.80;;
38715;SDS011;24833;49.324;8.694;2022-11-15T06:24:06;2.03;;;1.80;;
38715;SDS011;24833;49.324;8.694;2022-11-15T06:26:52;3.75;;;2.28;;
38715;SDS011;24833;49.324;8.694;2022-11-15T06:29:38;2.88;;;2.35;;
38715;SDS011;24833;49.324;8.694;2022-11-15T06:32:23;4.82;;;3.13;;
38715;SDS011;24833;49.324;8.694;2022-11-15T06:35:09;2.38;;;1.98;;
38715;SDS011;24833;49.324;8.694;2022-11-15T06:37:54;2.95;;;1.92;;
38715;SDS011;24833;49.324;8.694;2022-11-15T06:40:41;2.45;;;1.63;;
38715;SDS011;24833;49.324;8.694;2022-11-15T06:43:26;1.50;;;1.33;;
38715;SDS011;24833;49.324;8.694;2022-11-15T06:46:12;1.98;;;1.63;;
38715;SDS011;24833;49.324;8.694;2022-11-15T06:48:58;4.68;;;1.88;;
38715;SDS011;24833;49.324;8.694;2022-11-15T06:51:47;1.92;;;1.38;;
38715;SDS011;24833;49.324;8.694;2022-11-15T06:54:33;2.55;;;1.77;;
38715;SDS011;24833;49.324;8.694;2022-11-15T06:57:19;3.30;;;1.50;;
38715;SDS011;24833;49.324;8.694;2022-11-15T07:00:04;1.90;;;1.45;;
38715;SDS011;24833;49.324;8.694;2022-11-15T07:02:51;2.78;;;1.52;;
38715;SDS011;24833;49.324;8.694;2022-11-15T07:05:36;2.30;;;1.70;;
38715;SDS011;24833;49.324;8.694;2022-11-15T07:08:22;2.00;;;1.65;;
38715;SDS011;24833;49.324;8.694;2022-11-15T07:11:11;1.70;;;1.48;;
38715;SDS011;24833;49.324;8.694;2022-11-15T07:13:56;1.63;;;1.20;;
38715;SDS011;24833;49.324;8.694;2022-11-15T07:16:41;2.30;;;1.58;;
38715;SDS011;24833;49.324;8.694;2022-11-15T07:19:27;2.17;;;1.90;;
38715;SDS011;24833;49.324;8.694;2022-11-15T07:22:13;1.90;;;1.70;;
38715;SDS011;24833;49.324;8.694;2022-11-15T07:24:58;2.75;;;2.03;;
38715;SDS011;24833;49.324;8.694;2022-11-15T07:27:44;3.13;;;1.83;;
38715;SDS011;24833;49.324;8.694;2022-11-15T07:30:43;1.77;;;1.67;;
38715;SDS011;24833;49.324;8.694;2022-11-15T07:33:29;2.28;;;1.90;;
38715;SDS011;24833;49.324;8.694;2022-11-15T07:36:16;2.40;;;1.70;;
38715;SDS011;24833;49.324;8.694;2022-11-15T07:39:01;2.97;;;1.67;;
38715;SDS011;24833;49.324;8.694;2022-11-15T07:41:47;3.40;;;1.90;;
38715;SDS011;24833;49.324;8.694;2022-11-15T07:44:34;2.40;;;1.80;;
38715;SDS011;24833;49.324;8.694;2022-11-15T07:47:19;2.55;;;1.75;;
38715;SDS011;24833;49.324;8.694;2022-11-15T07:50:05;3.15;;;1.77;;
38715;SDS011;24833;49.324;8.694;2022-11-15T07:52:54;2.15;;;1.80;;
38715;SDS011;24833;49.324;8.694;2022-11-15T07:55:41;3.15;;;1.65;;
38715;SDS011;24833;49.324;8.694;2022-11-15T07:58:27;1.70;;;1.40;;
38715;SDS011;24833;49.324;8.694;2022-11-15T08:01:13;3.65;;;1.60;;
38715;SDS011;24833;49.324;8.694;2022-11-15T08:03:59;4.35;;;1.60;;
38715;SDS011;24833;49.324;8.694;2022-11-15T08:06:44;2.05;;;1.50;;
38715;SDS011;24833;49.324;8.694;2022-11-15T08:09:30;2.70;;;1.73;;
38715;SDS011;24833;49.324;8.694;2022-11-15T08:12:16;3.13;;;1.77;;
38715;SDS011;24833;49.324;8.694;2022-11-15T08:15:02;2.13;;;1.52;;
38715;SDS011;24833;49.324;8.694;2022-11-15T08:17:52;2.22;;;1.55;;
38715;SDS011;24833;49.324;8.694;2022-11-15T08:20:42;2.03;;;1.75;;
38715;SDS011;24833;49.324;8.694;2022-11-15T08:23:28;2.17;;;1.60;;
38715;SDS011;24833;49.324;8.694;2022-11-15T08:26:14;3.88;;;1.42;;
38715;SDS011;24833;49.324;8.694;2022-11-15T08:29:00;2.78;;;1.70;;
38715;SDS011;24833;49.324;8.694;2022-11-15T08:31:45;2.10;;;1.63;;
38715;SDS011;24833;49.324;8.694;2022-11-15T08:34:31;2.40;;;1.60;;
38715;SDS011;24833;49.324;8.694;2022-11-15T08:37:17;3.95;;;1.75;;
38715;SDS011;24833;49.324;8.694;2022-11-15T08:40:03;2.83;;;1.38;;
38715;SDS011;24833;49.324;8.694;2022-11-15T08:42:50;4.35;;;1.80;;
38715;SDS011;24833;49.324;8.694;2022-11-15T08:45:35;2.50;;;1.67;;
38715;SDS011;24833;49.324;8.694;2022-11-15T08:48:21;1.58;;;1.30;;
38715;SDS011;24833;49.324;8.694;2022-11-15T08:51:07;2.67;;;1.63;;
38715;SDS011;24833;49.324;8.694;2022-11-15T08:53:52;2.10;;;1.77;;
38715;SDS011;24833;49.324;8.694;2022-11-15T08:56:37;1.70;;;1.30;;
38715;SDS011;24833;49.324;8.694;2022-11-15T08:59:23;2.50;;;1.67;;
38715;SDS011;24833;49.324;8.694;2022-11-15T09:02:13;1.77;;;1.50;;
38715;SDS011;24833;49.324;8.694;2022-11-15T09:04:59;3.78;;;2.13;;
38715;SDS011;24833;49.324;8.694;2022-11-15T09:07:45;1.92;;;1.67;;
38715;SDS011;24833;49.324;8.694;2022-11-15T09:10:30;3.15;;;2.08;;
38715;SDS011;24833;49.324;8.694;2022-11-15T09:13:16;3.53;;;2.00;;
38715;SDS011;24833;49.324;8.694;2022-11-15T09:16:02;2.88;;;2.08;;
38715;SDS011;24833;49.324;8.694;2022-11-15T09:18:49;2.30;;;1.83;;
38715;SDS011;24833;49.324;8.694;2022-11-15T09:21:34;2.33;;;1.90;;
38715;SDS011;24833;49.324;8.694;2022-11-15T09:24:20;2.72;;;2.05;;
38715;SDS011;24833;49.324;8.694;2022-11-15T09:27:05;2.83;;;1.95;;
38715;SDS011;24833;49.324;8.694;2022-11-15T09:29:51;1.95;;;1.52;;
38715;SDS011;24833;49.324;8.694;2022-11-15T09:32:37;2.53;;;1.80;;
38715;SDS011;24833;49.324;8.694;2022-11-15T09:35:23;4.35;;;1.85;;
38715;SDS011;24833;49.324;8.694;2022-11-15T09:38:09;3.08;;;1.60;;
38715;SDS011;24833;49.324;8.694;2022-11-15T09:47:02;2.10;;;1.52;;
38715;SDS011;24833;49.324;8.694;2022-11-15T09:50:52;2.60;;;2.03;;
38715;SDS011;24833;49.324;8.694;2022-11-15T09:56:47;2.72;;;1.85;;
38715;SDS011;24833;49.324;8.694;2022-11-15T10:02:13;2.88;;;2.20;;
38715;SDS011;24833;49.324;8.694;2022-11-15T10:04:59;2.60;;;1.65;;
38715;SDS011;24833;49.324;8.694;2022-11-15T10:07:31;3.03;;;2.05;;
38715;SDS011;24833;49.324;8.694;2022-11-15T10:10:21;1.90;;;1.70;;
38715;SDS011;24833;49.324;8.694;2022-11-15T10:13:13;1.80;;;1.38;;
38715;SDS011;24833;49.324;8.694;2022-11-15T10:15:48;2.03;;;1.65;;
38715;SDS011;24833;49.324;8.694;2022-11-15T10:24:28;2.97;;;1.42;;
38715;SDS011;24833;49.324;8.694;2022-11-15T10:27:04;1.92;;;1.65;;
38715;SDS011;24833;49.324;8.694;2022-11-15T10:29:45;3.25;;;1.70;;
38715;SDS011;24833;49.324;8.694;2022-11-15T10:32:16;1.55;;;1.38;;
38715;SDS011;24833;49.324;8.694;2022-11-15T10:34:46;1.50;;;1.40;;
38715;SDS011;24833;49.324;8.694;2022-11-15T10:37:14;2.05;;;1.50;;
38715;SDS011;24833;49.324;8.694;2022-11-15T10:42:30;1.35;;;1.15;;
38715;SDS011;24833;49.324;8.694;2022-11-15T10:44:57;2.45;;;1.50;;
38715;SDS011;24833;49.324;8.694;2022-11-15T10:47:25;1.52;;;1.38;;
38715;SDS011;24833;49.324;8.694;2022-11-15T10:52:58;2.45;;;1.20;;
38715;SDS011;24833;49.324;8.694;2022-11-15T10:55:29;1.92;;;1.38;;
38715;SDS011;24833;49.324;8.694;2022-11-15T10:58:02;3.13;;;1.63;;
38715;SDS011;24833;49.324;8.694;2022-11-15T11:00:46;4.38;;;1.73;;
38715;SDS011;24833;49.324;8.694;2022-11-15T11:06:45;3.90;;;1.83;;
38715;SDS011;24833;49.324;8.694;2022-11-15T11:09:31;2.42;;;1.42;;
38715;SDS011;24833;49.324;8.694;2022-11-15T11:12:00;2.65;;;1.77;;
38715;SDS011;24833;49.324;8.694;2022-11-15T11:14:30;3.22;;;1.73;;
38715;SDS011;24833;49.324;8.694;2022-11-15T11:28:28;2.03;;;1.73;;
38715;SDS011;24833;49.324;8.694;2022-11-15T11:31:45;1.90;;;1.63;;
38715;SDS011;24833;49.324;8.694;2022-11-15T11:40:43;3.22;;;1.70;;
38715;SDS011;24833;49.324;8.694;2022-11-15T11:43:39;2.05;;;1.30;;
38715;SDS011;24833;49.324;8.694;2022-11-15T11:46:42;2.25;;;1.83;;
38715;SDS011;24833;49.324;8.694;2022-11-15T11:49:28;3.08;;;1.75;;
38715;SDS011;24833;49.324;8.694;2022-11-15T11:57:32;4.05;;;1.60;;
38715;SDS011;24833;49.324;8.694;2022-11-15T12:00:14;1.63;;;1.52;;
38715;SDS011;24833;49.324;8.694;2022-11-15T12:02:56;4.15;;;1.35;;
38715;SDS011;24833;49.324;8.694;2022-11-15T12:05:40;1.60;;;1.38;;
38715;SDS011;24833;49.324;8.694;2022-11-15T12:08:27;1.52;;;1.40;;
38715;SDS011;24833;49.324;8.694;2022-11-15T12:11:24;2.25;;;1.65;;
38715;SDS011;24833;49.324;8.694;2022-11-15T12:14:03;4.15;;;1.83;;
38715;SDS011;24833;49.324;8.694;2022-11-15T12:16:42;2.53;;;1.60;;
38715;SDS011;24833;49.324;8.694;2022-11-15T12:19:09;1.90;;;1.70;;
38715;SDS011;24833;49.324;8.694;2022-11-15T12:24:41;2.75;;;1.60;;
38715;SDS011;24833;49.324;8.694;2022-11-15T12:27:32;2.03;;;1.52;;
38715;SDS011;24833;49.324;8.694;2022-11-15T12:30:14;2.75;;;1.75;;
38715;SDS011;24833;49.324;8.694;2022-11-15T12:38:11;3.75;;;1.90;;
38715;SDS011;24833;49.324;8.694;2022-11-15T12:41:15;4.72;;;1.63;;
38715;SDS011;24833;49.324;8.694;2022-11-15T12:43:44;3.70;;;1.77;;
38715;SDS011;24833;49.324;8.694;2022-11-15T12:46:21;2.45;;;1.58;;
38715;SDS011;24833;49.324;8.694;2022-11-15T12:49:00;4.00;;;2.10;;
38715;SDS011;24833;49.324;8.694;2022-11-15T13:02:33;4.68;;;2.03;;
38715;SDS011;24833;49.324;8.694;2022-11-15T13:12:57;5.30;;;2.60;;
38715;SDS011;24833;49.324;8.694;2022-11-15T13:15:31;2.15;;;1.95;;
38715;SDS011;24833;49.324;8.694;2022-11-15T13:20:55;3.10;;;2.38;;
38715;SDS011;24833;49.324;8.694;2022-11-15T13:23:28;4.28;;;2.40;;
38715;SDS011;24833;49.324;8.694;2022-11-15T13:26:12;4.03;;;2.65;;
38715;SDS011;24833;49.324;8.694;2022-11-15T13:28:46;4.47;;;2.20;;
38715;SDS011;24833;49.324;8.694;2022-11-15T13:31:25;4.10;;;2.10;;
38715;SDS011;24833;49.324;8.694;2022-11-15T13:34:24;2.55;;;2.05;;
38715;SDS011;24833;49.324;8.694;2022-11-15T13:39:47;3.57;;;2.33;;
38715;SDS011;24833;49.324;8.694;2022-11-15T13:42:16;2.80;;;1.90;;
38715;SDS011;24833;49.324;8.694;2022-11-15T13:44:58;3.28;;;2.40;;
38715;SDS011;24833;49.324;8.694;2022-11-15T13:47:29;2.35;;;1.80;;
38715;SDS011;24833;49.324;8.694;2022-11-15T13:49:58;2.33;;;1.85;;
38715;SDS011;24833;49.324;8.694;2022-11-15T13:52:28;4.95;;;1.70;;
38715;SDS011;24833;49.324;8.694;2022-11-15T13:55:16;2.33;;;1.50;;
38715;SDS011;24833;49.324;8.694;2022-11-15T13:57:57;2.15;;;1.52;;
38715;SDS011;24833;49.324;8.694;2022-11-15T14:00:39;2.33;;;1.98;;
38715;SDS011;24833;49.324;8.694;2022-11-15T14:11:35;2.10;;;1.55;;
38715;SDS011;24833;49.324;8.694;2022-11-15T14:16:36;3.28;;;2.20;;
38715;SDS011;24833;49.324;8.694;2022-11-15T14:19:10;3.22;;;2.05;;
38715;SDS011;24833;49.324;8.694;2022-11-15T14:22:11;2.78;;;2.13;;
38715;SDS011;24833;49.324;8.694;2022-11-15T14:24:40;4.55;;;1.90;;
38715;SDS011;24833;49.324;8.694;2022-11-15T14:27:16;4.65;;;1.70;;
38715;SDS011;24833;49.324;8.694;2022-11-15T14:29:46;3.35;;;2.35;;
38715;SDS011;24833;49.324;8.694;2022-11-15T14:32:15;3.67;;;2.50;;
38715;SDS011;24833;49.324;8.694;2022-11-15T14:34:47;3.58;;;2.45;;
38715;SDS011;24833;49.324;8.694;2022-11-15T14:37:29;2.80;;;2.22;;
38715;SDS011;24833;49.324;8.694;2022-11-15T14:40:05;2.92;;;2.25;;
38715;SDS011;24833;49.324;8.694;2022-11-15T14:42:35;4.30;;;2.20;;
38715;SDS011;24833;49.324;8.694;2022-11-15T14:45:02;4.35;;;2.97;;
38715;SDS011;24833;49.324;8.694;2022-11-15T14:47:41;3.95;;;2.17;;
38715;SDS011;24833;49.324;8.694;2022-11-15T14:50:16;2.58;;;2.28;;
38715;SDS011;24833;49.324;8.694;2022-11-15T14:52:46;3.75;;;2.40;;
38715;SDS011;24833;49.324;8.694;2022-11-15T14:55:25;3.97;;;2.55;;
38715;SDS011;24833;49.324;8.694;2022-11-15T14:58:00;4.05;;;2.22;;
38715;SDS011;24833;49.324;8.694;2022-11-15T15:00:34;2.88;;;2.30;;
38715;SDS011;24833;49.324;8.694;2022-11-15T15:03:06;4.03;;;1.98;;
38715;SDS011;24833;49.324;8.694;2022-11-15T15:05:41;3.40;;;2.28;;
38715;SDS011;24833;49.324;8.694;2022-11-15T15:08:10;4.00;;;2.47;;
38715;SDS011;24833;49.324;8.694;2022-11-15T15:10:38;4.22;;;2.25;;
38715;SDS011;24833;49.324;8.694;2022-11-15T15:13:17;4.28;;;2.58;;
38715;SDS011;24833;49.324;8.694;2022-11-15T15:15:51;3.95;;;2.40;;
38715;SDS011;24833;49.324;8.694;2022-11-15T15:18:18;4.68;;;2.70;;
38715;SDS011;24833;49.324;8.694;2022-11-15T15:20:47;2.78;;;2.10;;
38715;SDS011;24833;49.324;8.694;2022-11-15T15:23:28;3.75;;;2.38;;
38715;SDS011;24833;49.324;8.694;2022-11-15T15:25:57;4.07;;;2.08;;
38715;SDS011;24833;49.324;8.694;2022-11-15T15:28:24;3.40;;;2.10;;
38715;SDS011;24833;49.324;8.694;2022-11-15T15:30:59;3.92;;;2.58;;
38715;SDS011;24833;49.324;8.694;2022-11-15T15:33:26;4.20;;;2.30;;
38715;SDS011;24833;49.324;8.694;2022-11-15T15:35:53;3.72;;;2.53;;
38715;SDS011;24833;49.324;8.694;2022-11-15T15:38:20;3.40;;;1.90;;
38715;SDS011;24833;49.324;8.694;2022-11-15T15:40:47;2.90;;;2.00;;
38715;SDS011;24833;49.324;8.694;2022-11-15T15:43:17;5.65;;;2.17;;
38715;SDS011;24833;49.324;8.694;2022-11-15T15:45:44;3.00;;;1.83;;
38715;SDS011;24833;49.324;8.694;2022-11-15T15:48:15;2.67;;;2.10;;
38715;SDS011;24833;49.324;8.694;2022-11-15T15:50:43;5.35;;;2.10;;
38715;SDS011;24833;49.324;8.694;2022-11-15T15:53:10;3.20;;;2.05;;
38715;SDS011;24833;49.324;8.694;2022-11-15T15:55:38;4.75;;;2.40;;
38715;SDS011;24833;49.324;8.694;2022-11-15T15:58:06;3.90;;;2.22;;
38715;SDS011;24833;49.324;8.694;2022-11-15T16:00:34;2.78;;;1.98;;
38715;SDS011;24833;49.324;8.694;2022-11-15T16:03:02;4.38;;;2.25;;
38715;SDS011;24833;49.324;8.694;2022-11-15T16:05:29;3.75;;;1.98;;
38715;SDS011;24833;49.324;8.694;2022-11-15T16:07:56;7.88;;;2.30;;
38715;SDS011;24833;49.324;8.694;2022-11-15T16:10:27;3.80;;;2.45;;
38715;SDS011;24833;49.324;8.694;2022-11-15T16:13:03;3.85;;;2.13;;
38715;SDS011;24833;49.324;8.694;2022-11-15T16:15:30;2.85;;;2.25;;
38715;SDS011;24833;49.324;8.694;2022-11-15T16:17:58;3.83;;;2.20;;
38715;SDS011;24833;49.324;8.694;2022-11-15T16:20:37;3.05;;;2.42;;
38715;SDS011;24833;49.324;8.694;2022-11-15T16:23:18;3.38;;;2.00;;
38715;SDS011;24833;49.324;8.694;2022-11-15T16:28:21;3.55;;;2.28;;
38715;SDS011;24833;49.324;8.694;2022-11-15T16:31:05;4.88;;;2.42;;
38715;SDS011;24833;49.324;8.694;2022-11-15T16:33:36;5.68;;;2.25;;
38715;SDS011;24833;49.324;8.694;2022-11-15T16:36:05;4.00;;;2.72;;
38715;SDS011;24833;49.324;8.694;2022-11-15T16:38:53;6.25;;;2.67;;
38715;SDS011;24833;49.324;8.694;2022-11-15T16:41:20;3.33;;;2.38;;
38715;SDS011;24833;49.324;8.694;2022-11-15T16:43:48;3.00;;;2.10;;
38715;SDS011;24833;49.324;8.694;2022-11-15T16:46:19;5.22;;;2.65;;
38715;SDS011;24833;49.324;8.694;2022-11-15T16:48:51;3.03;;;2.00;;
38715;SDS011;24833;49.324;8.694;2022-11-15T16:51:19;3.28;;;1.60;;
38715;SDS011;24833;49.324;8.694;2022-11-15T16:53:47;4.55;;;2.08;;
38715;SDS011;24833;49.324;8.694;2022-11-15T16:56:23;2.67;;;2.05;;
38715;SDS011;24833;49.324;8.694;2022-11-15T16:58:55;5.35;;;2.03;;
38715;SDS011;24833;49.324;8.694;2022-11-15T17:01:27;3.58;;;2.30;;
38715;SDS011;24833;49.324;8.694;2022-11-15T17:04:02;4.63;;;2.05;;
38715;SDS011;24833;49.324;8.694;2022-11-15T17:06:38;3.22;;;1.83;;
38715;SDS011;24833;49.324;8.694;2022-11-15T17:09:11;4.72;;;2.47;;
38715;SDS011;24833;49.324;8.694;2022-11-15T17:11:50;3.65;;;2.33;;
38715;SDS011;24833;49.324;8.694;2022-11-15T17:14:18;5.50;;;2.80;;
38715;SDS011;24833;49.324;8.694;2022-11-15T17:16:45;7.88;;;2.58;;
38715;SDS011;24833;49.324;8.694;2022-11-15T17:19:13;3.30;;;2.40;;
38715;SDS011;24833;49.324;8.694;2022-11-15T17:21:42;3.88;;;2.38;;
38715;SDS011;24833;49.324;8.694;2022-11-15T17:24:10;3.45;;;2.40;;
38715;SDS011;24833;49.324;8.694;2022-11-15T17:26:38;4.80;;;2.35;;
38715;SDS011;24833;49.324;8.694;2022-11-15T17:29:06;3.25;;;2.10;;
38715;SDS011;24833;49.324;8.694;2022-11-15T17:31:34;2.97;;;2.13;;
38715;SDS011;24833;49.324;8.694;2022-11-15T17:34:02;4.05;;;2.63;;
38715;SDS011;24833;49.324;8.694;2022-11-15T17:36:31;3.05;;;2.67;;
38715;SDS011;24833;49.324;8.694;2022-11-15T17:38:58;2.88;;;1.75;;
38715;SDS011;24833;49.324;8.694;2022-11-15T17:41:26;3.47;;;2.50;;
38715;SDS011;24833;49.324;8.694;2022-11-15T17:43:55;4.43;;;2.45;;
38715;SDS011;24833;49.324;8.694;2022-11-15T17:46:25;3.40;;;2.70;;
38715;SDS011;24833;49.324;8.694;2022-11-15T17:48:54;7.97;;;2.83;;
38715;SDS011;24833;49.324;8.694;2022-11-15T17:51:22;5.45;;;3.15;;
38715;SDS011;24833;49.324;8.694;2022-11-15T17:53:50;5.00;;;3.00;;
38715;SDS011;24833;49.324;8.694;2022-11-15T17:56:19;3.28;;;2.28;;
38715;SDS011;24833;49.324;8.694;2022-11-15T17:58:48;5.07;;;2.42;;
38715;SDS011;24833;49.324;8.694;2022-11-15T18:01:24;5.35;;;2.30;;
38715;SDS011;24833;49.324;8.694;2022-11-15T18:03:56;4.15;;;2.47;;
38715;SDS011;24833;49.324;8.694;2022-11-15T18:06:26;4.65;;;2.50;;
38715;SDS011;24833;49.324;8.694;2022-11-15T18:08:55;7.93;;;2.63;;
38715;SDS011;24833;49.324;8.694;2022-11-15T18:11:25;4.63;;;2.30;;
38715;SDS011;24833;49.324;8.694;2022-11-15T18:13:55;4.30;;;2.33;;
38715;SDS011;24833;49.324;8.694;2022-11-15T18:16:26;2.40;;;2.10;;
38715;SDS011;24833;49.324;8.694;2022-11-15T18:18:56;3.17;;;2.33;;
38715;SDS011;24833;49.324;8.694;2022-11-15T18:21:26;5.53;;;2.50;;
38715;SDS011;24833;49.324;8.694;2022-11-15T18:23:56;4.00;;;2.15;;